sensor_id;sensor_type;location;lat;lon;timestamp;temperature;humidity
3919;DHT22;1974;48.670;8.994;2022-10-23T00:00:37;12.10;99.90
3919;DHT22;1974;48.670;8.994;2022-10-23T00:03:04;12.10;99.90
3919;DHT22;1974;48.670;8.994;2022-10-23T00:05:31;12.10;99.90
3919;DHT22;1974;48.670;8.994;2022-10-23T00:07:59;12.00;99.90
3919;DHT22;1974;48.670;8.994;2022-10-23T00:10:26;12.00;99.90
3919;DHT22;1974;48.670;8.994;2022-10-23T00:12:54;12.10;99.90
3919;DHT22;1974;48.670;8.994;2022-10-23T00:15:22;12.10;99.90
3919;DHT22;1974;48.670;8.994;2022-10-23T00:17:52;12.10;99.90
3919;DHT22;1974;48.670;8.994;2022-10-23T00:20:19;12.10;99.90
3919;DHT22;1974;48.670;8.994;2022-10-23T00:22:46;12.10;99.90
3919;DHT22;1974;48.670;8.994;2022-10-23T00:25:14;12.10;99.90
3919;DHT22;1974;48.670;8.994;2022-10-23T00:27:42;12.10;99.90
3919;DHT22;1974;48.670;8.994;2022-10-23T00:30:10;12.10;99.90
3919;DHT22;1974;48.670;8.994;2022-10-23T00:32:37;12.00;99.90
3919;DHT22;1974;48.670;8.994;2022-10-23T00:35:05;12.00;99.90
3919;DHT22;1974;48.670;8.994;2022-10-23T00:37:31;12.00;99.90
3919;DHT22;1974;48.670;8.994;2022-10-23T00:39:58;12.00;99.90
3919;DHT22;1974;48.670;8.994;2022-10-23T00:42:26;12.00;99.90
3919;DHT22;1974;48.670;8.994;2022-10-23T00:45:17;12.00;99.90
3919;DHT22;1974;48.670;8.994;2022-10-23T00:47:44;12.00;99.90
3919;DHT22;1974;48.670;8.994;2022-10-23T00:50:12;11.90;99.90
3919;DHT22;1974;48.670;8.994;2022-10-23T00:52:44;12.00;99.90
3919;DHT22;1974;48.670;8.994;2022-10-23T00:55:11;12.00;99.90
3919;DHT22;1974;48.670;8.994;2022-10-23T00:57:43;11.90;99.90
3919;DHT22;1974;48.670;8.994;2022-10-23T01:00:14;11.90;99.90
3919;DHT22;1974;48.670;8.994;2022-10-23T01:02:41;11.90;99.90
3919;DHT22;1974;48.670;8.994;2022-10-23T01:05:08;11.90;99.90
3919;DHT22;1974;48.670;8.994;2022-10-23T01:07:42;11.90;99.90
3919;DHT22;1974;48.670;8.994;2022-10-23T01:10:14;11.80;99.90
3919;DHT22;1974;48.670;8.994;2022-10-23T01:12:48;11.80;99.90
3919;DHT22;1974;48.670;8.994;2022-10-23T01:15:21;11.80;99.90
3919;DHT22;1974;48.670;8.994;2022-10-23T01:17:53;11.80;99.90
3919;DHT22;1974;48.670;8.994;2022-10-23T01:20:30;11.80;99.90
3919;DHT22;1974;48.670;8.994;2022-10-23T01:23:21;11.70;99.90
3919;DHT22;1974;48.670;8.994;2022-10-23T01:26:06;11.70;99.90
3919;DHT22;1974;48.670;8.994;2022-10-23T01:28:43;11.70;99.90
3919;DHT22;1974;48.670;8.994;2022-10-23T01:31:16;11.70;99.90
3919;DHT22;1974;48.670;8.994;2022-10-23T01:33:46;11.70;99.90
3919;DHT22;1974;48.670;8.994;2022-10-23T01:36:15;11.60;99.90
3919;DHT22;1974;48.670;8.994;2022-10-23T01:38:46;11.60;99.90
3919;DHT22;1974;48.670;8.994;2022-10-23T01:41:17;11.70;99.90
3919;DHT22;1974;48.670;8.994;2022-10-23T01:43:52;11.70;99.90
3919;DHT22;1974;48.670;8.994;2022-10-23T01:46:21;11.70;99.90
3919;DHT22;1974;48.670;8.994;2022-10-23T01:48:51;11.70;99.90
3919;DHT22;1974;48.670;8.994;2022-10-23T01:51:21;11.70;99.90
3919;DHT22;1974;48.670;8.994;2022-10-23T01:53:51;11.70;99.90
3919;DHT22;1974;48.670;8.994;2022-10-23T01:56:24;11.70;99.90
3919;DHT22;1974;48.670;8.994;2022-10-23T01:58:54;11.70;99.90
3919;DHT22;1974;48.670;8.994;2022-10-23T02:01:24;11.60;99.90
3919;DHT22;1974;48.670;8.994;2022-10-23T02:03:53;11.60;99.90
3919;DHT22;1974;48.670;8.994;2022-10-23T02:06:21;11.60;99.90
3919;DHT22;1974;48.670;8.994;2022-10-23T02:08:48;11.60;99.90
3919;DHT22;1974;48.670;8.994;2022-10-23T02:11:16;11.60;99.90
3919;DHT22;1974;48.670;8.994;2022-10-23T02:13:51;11.60;99.90
3919;DHT22;1974;48.670;8.994;2022-10-23T02:16:30;11.60;99.90
3919;DHT22;1974;48.670;8.994;2022-10-23T02:19:06;11.60;99.90
3919;DHT22;1974;48.670;8.994;2022-10-23T02:21:46;11.50;99.90
3919;DHT22;1974;48.670;8.994;2022-10-23T02:24:17;11.60;99.90
3919;DHT22;1974;48.670;8.994;2022-10-23T02:26:50;11.50;99.90
3919;DHT22;1974;48.670;8.994;2022-10-23T02:29:20;11.60;99.90
3919;DHT22;1974;48.670;8.994;2022-10-23T02:31:52;11.50;99.90
3919;DHT22;1974;48.670;8.994;2022-10-23T02:34:19;11.50;99.90
3919;DHT22;1974;48.670;8.994;2022-10-23T02:36:46;11.60;99.90
3919;DHT22;1974;48.670;8.994;2022-10-23T02:39:12;11.50;99.90
3919;DHT22;1974;48.670;8.994;2022-10-23T02:41:43;11.50;99.90
3919;DHT22;1974;48.670;8.994;2022-10-23T02:44:22;11.60;99.90
3919;DHT22;1974;48.670;8.994;2022-10-23T02:46:56;11.60;99.90
3919;DHT22;1974;48.670;8.994;2022-10-23T02:49:31;11.60;99.90
3919;DHT22;1974;48.670;8.994;2022-10-23T02:52:07;11.60;99.90
3919;DHT22;1974;48.670;8.994;2022-10-23T02:55:04;11.60;99.90
3919;DHT22;1974;48.670;8.994;2022-10-23T02:57:38;11.60;99.90
3919;DHT22;1974;48.670;8.994;2022-10-23T03:00:09;11.70;99.90
3919;DHT22;1974;48.670;8.994;2022-10-23T03:02:40;11.70;99.90
3919;DHT22;1974;48.670;8.994;2022-10-23T03:05:10;11.70;99.90
3919;DHT22;1974;48.670;8.994;2022-10-23T03:07:38;11.70;99.90
3919;DHT22;1974;48.670;8.994;2022-10-23T03:10:07;11.70;99.90
3919;DHT22;1974;48.670;8.994;2022-10-23T03:12:34;11.70;99.90
3919;DHT22;1974;48.670;8.994;2022-10-23T03:15:02;11.70;99.90
3919;DHT22;1974;48.670;8.994;2022-10-23T03:17:28;11.70;99.90
3919;DHT22;1974;48.670;8.994;2022-10-23T03:19:56;11.70;99.90
3919;DHT22;1974;48.670;8.994;2022-10-23T03:22:23;11.80;99.90
3919;DHT22;1974;48.670;8.994;2022-10-23T03:24:50;11.80;99.90
3919;DHT22;1974;48.670;8.994;2022-10-23T03:27:17;11.80;99.90
3919;DHT22;1974;48.670;8.994;2022-10-23T03:29:44;11.90;99.90
3919;DHT22;1974;48.670;8.994;2022-10-23T03:32:10;11.90;99.90
3919;DHT22;1974;48.670;8.994;2022-10-23T03:34:37;12.00;99.90
3919;DHT22;1974;48.670;8.994;2022-10-23T03:37:05;12.10;99.90
3919;DHT22;1974;48.670;8.994;2022-10-23T03:39:32;12.20;99.90
3919;DHT22;1974;48.670;8.994;2022-10-23T03:41:59;12.20;99.90
3919;DHT22;1974;48.670;8.994;2022-10-23T03:44:26;12.20;99.90
3919;DHT22;1974;48.670;8.994;2022-10-23T03:46:52;12.20;99.90
3919;DHT22;1974;48.670;8.994;2022-10-23T03:49:20;12.20;99.90
3919;DHT22;1974;48.670;8.994;2022-10-23T03:51:47;12.20;99.90
3919;DHT22;1974;48.670;8.994;2022-10-23T03:54:20;12.20;99.90
3919;DHT22;1974;48.670;8.994;2022-10-23T03:56:47;12.10;99.90
3919;DHT22;1974;48.670;8.994;2022-10-23T03:59:14;12.00;99.90
3919;DHT22;1974;48.670;8.994;2022-10-23T04:01:41;12.00;99.90
3919;DHT22;1974;48.670;8.994;2022-10-23T04:04:07;11.90;99.90
3919;DHT22;1974;48.670;8.994;2022-10-23T04:06:34;11.90;99.90
3919;DHT22;1974;48.670;8.994;2022-10-23T04:09:01;11.90;99.90
3919;DHT22;1974;48.670;8.994;2022-10-23T04:11:30;11.80;99.90
3919;DHT22;1974;48.670;8.994;2022-10-23T04:13:56;11.80;99.90
3919;DHT22;1974;48.670;8.994;2022-10-23T04:16:24;11.80;99.90
3919;DHT22;1974;48.670;8.994;2022-10-23T04:18:51;11.80;99.90
3919;DHT22;1974;48.670;8.994;2022-10-23T04:21:18;11.70;99.90
3919;DHT22;1974;48.670;8.994;2022-10-23T04:23:45;11.70;99.90
3919;DHT22;1974;48.670;8.994;2022-10-23T04:26:11;11.70;99.90
3919;DHT22;1974;48.670;8.994;2022-10-23T04:28:40;11.70;99.90
3919;DHT22;1974;48.670;8.994;2022-10-23T04:31:06;11.70;99.90
3919;DHT22;1974;48.670;8.994;2022-10-23T04:33:33;11.70;99.90
3919;DHT22;1974;48.670;8.994;2022-10-23T04:36:00;11.80;99.90
3919;DHT22;1974;48.670;8.994;2022-10-23T04:38:27;11.90;99.90
3919;DHT22;1974;48.670;8.994;2022-10-23T04:40:53;11.90;99.90
3919;DHT22;1974;48.670;8.994;2022-10-23T04:43:20;11.90;99.90
3919;DHT22;1974;48.670;8.994;2022-10-23T04:45:49;11.90;99.90
3919;DHT22;1974;48.670;8.994;2022-10-23T04:48:15;11.90;99.90
3919;DHT22;1974;48.670;8.994;2022-10-23T04:50:43;11.90;99.90
3919;DHT22;1974;48.670;8.994;2022-10-23T04:53:09;11.90;99.90
3919;DHT22;1974;48.670;8.994;2022-10-23T04:55:36;11.90;99.90
3919;DHT22;1974;48.670;8.994;2022-10-23T04:58:03;11.90;99.90
3919;DHT22;1974;48.670;8.994;2022-10-23T05:00:30;11.90;99.90
3919;DHT22;1974;48.670;8.994;2022-10-23T05:02:58;11.90;99.90
3919;DHT22;1974;48.670;8.994;2022-10-23T05:05:25;11.90;99.90
3919;DHT22;1974;48.670;8.994;2022-10-23T05:07:51;11.90;99.90
3919;DHT22;1974;48.670;8.994;2022-10-23T05:10:18;11.90;99.90
3919;DHT22;1974;48.670;8.994;2022-10-23T05:12:45;11.90;99.90
3919;DHT22;1974;48.670;8.994;2022-10-23T05:15:12;11.90;99.90
3919;DHT22;1974;48.670;8.994;2022-10-23T05:17:40;11.90;99.90
3919;DHT22;1974;48.670;8.994;2022-10-23T05:20:14;11.90;99.90
3919;DHT22;1974;48.670;8.994;2022-10-23T05:22:43;11.90;99.90
3919;DHT22;1974;48.670;8.994;2022-10-23T05:25:12;11.90;99.90
3919;DHT22;1974;48.670;8.994;2022-10-23T05:27:39;11.90;99.90
3919;DHT22;1974;48.670;8.994;2022-10-23T05:30:06;11.90;99.90
3919;DHT22;1974;48.670;8.994;2022-10-23T05:32:34;11.90;99.90
3919;DHT22;1974;48.670;8.994;2022-10-23T05:35:05;11.90;99.90
3919;DHT22;1974;48.670;8.994;2022-10-23T05:37:36;11.90;99.90
3919;DHT22;1974;48.670;8.994;2022-10-23T05:40:04;11.90;99.90
3919;DHT22;1974;48.670;8.994;2022-10-23T05:42:31;11.90;99.90
3919;DHT22;1974;48.670;8.994;2022-10-23T05:44:58;11.90;99.90
3919;DHT22;1974;48.670;8.994;2022-10-23T05:47:25;11.90;99.90
3919;DHT22;1974;48.670;8.994;2022-10-23T05:49:52;11.90;99.90
3919;DHT22;1974;48.670;8.994;2022-10-23T05:52:18;11.90;99.90
3919;DHT22;1974;48.670;8.994;2022-10-23T05:54:47;11.90;99.90
3919;DHT22;1974;48.670;8.994;2022-10-23T05:57:13;11.90;99.90
3919;DHT22;1974;48.670;8.994;2022-10-23T05:59:40;11.90;99.90
3919;DHT22;1974;48.670;8.994;2022-10-23T06:02:07;11.90;99.90
3919;DHT22;1974;48.670;8.994;2022-10-23T06:04:34;12.00;99.90
3919;DHT22;1974;48.670;8.994;2022-10-23T06:07:01;12.00;99.90
3919;DHT22;1974;48.670;8.994;2022-10-23T06:09:28;12.00;99.90
3919;DHT22;1974;48.670;8.994;2022-10-23T06:11:56;12.00;99.90
3919;DHT22;1974;48.670;8.994;2022-10-23T06:14:23;12.00;99.90
3919;DHT22;1974;48.670;8.994;2022-10-23T06:16:50;12.10;99.90
3919;DHT22;1974;48.670;8.994;2022-10-23T06:19:17;12.00;99.90
3919;DHT22;1974;48.670;8.994;2022-10-23T06:21:43;12.00;99.90
3919;DHT22;1974;48.670;8.994;2022-10-23T06:24:10;12.00;99.90
3919;DHT22;1974;48.670;8.994;2022-10-23T06:26:37;12.10;99.90
3919;DHT22;1974;48.670;8.994;2022-10-23T06:29:05;12.00;99.90
3919;DHT22;1974;48.670;8.994;2022-10-23T06:31:32;12.00;99.90
3919;DHT22;1974;48.670;8.994;2022-10-23T06:33:59;12.10;99.90
3919;DHT22;1974;48.670;8.994;2022-10-23T06:36:26;12.20;99.90
3919;DHT22;1974;48.670;8.994;2022-10-23T06:38:53;12.20;99.90
3919;DHT22;1974;48.670;8.994;2022-10-23T06:41:21;12.20;99.90
3919;DHT22;1974;48.670;8.994;2022-10-23T06:43:49;12.20;99.90
3919;DHT22;1974;48.670;8.994;2022-10-23T06:46:18;12.30;99.90
3919;DHT22;1974;48.670;8.994;2022-10-23T06:48:45;12.30;99.90
3919;DHT22;1974;48.670;8.994;2022-10-23T06:51:14;12.40;99.90
3919;DHT22;1974;48.670;8.994;2022-10-23T06:53:42;12.40;99.90
3919;DHT22;1974;48.670;8.994;2022-10-23T06:56:10;12.50;99.90
3919;DHT22;1974;48.670;8.994;2022-10-23T06:58:38;12.60;99.90
3919;DHT22;1974;48.670;8.994;2022-10-23T07:01:07;12.60;99.90
3919;DHT22;1974;48.670;8.994;2022-10-23T07:03:35;12.70;99.90
3919;DHT22;1974;48.670;8.994;2022-10-23T07:06:03;12.80;99.90
3919;DHT22;1974;48.670;8.994;2022-10-23T07:08:30;12.80;99.90
3919;DHT22;1974;48.670;8.994;2022-10-23T07:11:02;12.90;99.90
3919;DHT22;1974;48.670;8.994;2022-10-23T07:13:29;13.00;99.90
3919;DHT22;1974;48.670;8.994;2022-10-23T07:15:55;13.00;99.90
3919;DHT22;1974;48.670;8.994;2022-10-23T07:18:22;13.10;99.90
3919;DHT22;1974;48.670;8.994;2022-10-23T07:20:56;13.20;99.90
3919;DHT22;1974;48.670;8.994;2022-10-23T07:23:23;13.30;99.90
3919;DHT22;1974;48.670;8.994;2022-10-23T07:25:50;13.40;99.90
3919;DHT22;1974;48.670;8.994;2022-10-23T07:28:17;13.50;99.90
3919;DHT22;1974;48.670;8.994;2022-10-23T07:30:44;13.60;99.90
3919;DHT22;1974;48.670;8.994;2022-10-23T07:33:11;13.70;99.90
3919;DHT22;1974;48.670;8.994;2022-10-23T07:35:38;13.80;99.90
3919;DHT22;1974;48.670;8.994;2022-10-23T07:38:06;13.90;99.90
3919;DHT22;1974;48.670;8.994;2022-10-23T07:40:34;13.90;99.90
3919;DHT22;1974;48.670;8.994;2022-10-23T07:43:00;14.00;99.90
3919;DHT22;1974;48.670;8.994;2022-10-23T07:45:27;14.10;99.90
3919;DHT22;1974;48.670;8.994;2022-10-23T07:47:54;14.10;99.90
3919;DHT22;1974;48.670;8.994;2022-10-23T07:50:21;14.10;99.90
3919;DHT22;1974;48.670;8.994;2022-10-23T07:52:48;14.20;99.90
3919;DHT22;1974;48.670;8.994;2022-10-23T07:55:16;14.30;99.90
3919;DHT22;1974;48.670;8.994;2022-10-23T07:57:43;14.40;99.90
3919;DHT22;1974;48.670;8.994;2022-10-23T08:00:10;14.50;99.90
3919;DHT22;1974;48.670;8.994;2022-10-23T08:02:37;14.50;99.90
3919;DHT22;1974;48.670;8.994;2022-10-23T08:05:05;14.60;99.90
3919;DHT22;1974;48.670;8.994;2022-10-23T08:07:32;14.60;99.90
3919;DHT22;1974;48.670;8.994;2022-10-23T08:09:58;14.70;99.90
3919;DHT22;1974;48.670;8.994;2022-10-23T08:12:26;14.70;99.90
3919;DHT22;1974;48.670;8.994;2022-10-23T08:14:53;14.80;99.90
3919;DHT22;1974;48.670;8.994;2022-10-23T08:17:20;14.90;99.90
3919;DHT22;1974;48.670;8.994;2022-10-23T08:19:47;15.10;99.90
3919;DHT22;1974;48.670;8.994;2022-10-23T08:22:14;15.30;99.90
3919;DHT22;1974;48.670;8.994;2022-10-23T08:24:41;15.50;99.90
3919;DHT22;1974;48.670;8.994;2022-10-23T08:27:08;15.70;99.90
3919;DHT22;1974;48.670;8.994;2022-10-23T08:29:36;15.90;99.90
3919;DHT22;1974;48.670;8.994;2022-10-23T08:32:03;16.00;99.90
3919;DHT22;1974;48.670;8.994;2022-10-23T08:34:30;16.00;99.90
3919;DHT22;1974;48.670;8.994;2022-10-23T08:36:57;16.00;99.90
3919;DHT22;1974;48.670;8.994;2022-10-23T08:39:24;16.00;99.90
3919;DHT22;1974;48.670;8.994;2022-10-23T08:41:51;16.00;99.90
3919;DHT22;1974;48.670;8.994;2022-10-23T08:44:22;16.20;99.90
3919;DHT22;1974;48.670;8.994;2022-10-23T08:46:58;16.40;99.90
3919;DHT22;1974;48.670;8.994;2022-10-23T08:49:35;17.00;99.90
3919;DHT22;1974;48.670;8.994;2022-10-23T08:52:12;17.90;99.90
3919;DHT22;1974;48.670;8.994;2022-10-23T08:54:50;18.90;99.90
3919;DHT22;1974;48.670;8.994;2022-10-23T08:57:21;20.20;99.90
3919;DHT22;1974;48.670;8.994;2022-10-23T08:59:53;21.80;99.90
3919;DHT22;1974;48.670;8.994;2022-10-23T09:02:27;23.30;99.90
3919;DHT22;1974;48.670;8.994;2022-10-23T09:04:57;24.70;99.90
3919;DHT22;1974;48.670;8.994;2022-10-23T09:07:33;26.00;99.90
3919;DHT22;1974;48.670;8.994;2022-10-23T09:10:23;27.30;99.90
3919;DHT22;1974;48.670;8.994;2022-10-23T09:12:52;28.30;99.50
3919;DHT22;1974;48.670;8.994;2022-10-23T09:15:26;28.70;95.80
3919;DHT22;1974;48.670;8.994;2022-10-23T09:17:58;29.10;92.20
3919;DHT22;1974;48.670;8.994;2022-10-23T09:20:31;29.10;90.10
3919;DHT22;1974;48.670;8.994;2022-10-23T09:23:00;28.30;89.90
3919;DHT22;1974;48.670;8.994;2022-10-23T09:25:29;28.20;87.70
3919;DHT22;1974;48.670;8.994;2022-10-23T09:27:58;28.30;88.80
3919;DHT22;1974;48.670;8.994;2022-10-23T09:30:28;28.60;85.40
3919;DHT22;1974;48.670;8.994;2022-10-23T09:32:58;28.60;85.30
3919;DHT22;1974;48.670;8.994;2022-10-23T09:35:27;28.10;82.80
3919;DHT22;1974;48.670;8.994;2022-10-23T09:37:54;28.00;86.10
3919;DHT22;1974;48.670;8.994;2022-10-23T09:40:28;27.90;85.20
3919;DHT22;1974;48.670;8.994;2022-10-23T09:42:59;27.40;84.50
3919;DHT22;1974;48.670;8.994;2022-10-23T09:45:30;26.80;86.00
3919;DHT22;1974;48.670;8.994;2022-10-23T09:48:10;26.10;87.40
3919;DHT22;1974;48.670;8.994;2022-10-23T09:50:44;25.80;88.30
3919;DHT22;1974;48.670;8.994;2022-10-23T09:53:15;25.90;87.30
3919;DHT22;1974;48.670;8.994;2022-10-23T09:55:50;26.30;86.60
3919;DHT22;1974;48.670;8.994;2022-10-23T09:58:20;27.10;86.40
3919;DHT22;1974;48.670;8.994;2022-10-23T10:00:47;27.50;83.50
3919;DHT22;1974;48.670;8.994;2022-10-23T10:03:20;27.60;81.70
3919;DHT22;1974;48.670;8.994;2022-10-23T10:05:55;27.60;82.40
3919;DHT22;1974;48.670;8.994;2022-10-23T10:08:26;27.40;82.30
3919;DHT22;1974;48.670;8.994;2022-10-23T10:10:59;27.10;82.20
3919;DHT22;1974;48.670;8.994;2022-10-23T10:13:42;26.40;84.10
3919;DHT22;1974;48.670;8.994;2022-10-23T10:16:18;25.70;87.80
3919;DHT22;1974;48.670;8.994;2022-10-23T10:18:54;25.20;89.70
3919;DHT22;1974;48.670;8.994;2022-10-23T10:21:27;24.80;89.80
3919;DHT22;1974;48.670;8.994;2022-10-23T10:23:59;24.10;89.80
3919;DHT22;1974;48.670;8.994;2022-10-23T10:26:35;23.70;90.60
3919;DHT22;1974;48.670;8.994;2022-10-23T10:29:13;23.80;90.70
3919;DHT22;1974;48.670;8.994;2022-10-23T10:31:51;23.60;90.50
3919;DHT22;1974;48.670;8.994;2022-10-23T10:34:28;23.30;90.90
3919;DHT22;1974;48.670;8.994;2022-10-23T10:36:57;23.00;92.10
3919;DHT22;1974;48.670;8.994;2022-10-23T10:39:35;22.90;93.30
3919;DHT22;1974;48.670;8.994;2022-10-23T10:42:24;22.80;93.50
3919;DHT22;1974;48.670;8.994;2022-10-23T10:45:06;22.40;93.00
3919;DHT22;1974;48.670;8.994;2022-10-23T10:47:44;22.20;94.10
3919;DHT22;1974;48.670;8.994;2022-10-23T10:50:20;21.80;93.50
3919;DHT22;1974;48.670;8.994;2022-10-23T10:52:54;21.50;93.80
3919;DHT22;1974;48.670;8.994;2022-10-23T10:55:27;21.40;95.00
3919;DHT22;1974;48.670;8.994;2022-10-23T10:57:58;21.30;95.00
3919;DHT22;1974;48.670;8.994;2022-10-23T11:00:27;21.50;96.20
3919;DHT22;1974;48.670;8.994;2022-10-23T11:02:59;21.50;97.20
3919;DHT22;1974;48.670;8.994;2022-10-23T11:05:31;21.50;96.90
3919;DHT22;1974;48.670;8.994;2022-10-23T11:08:00;21.50;96.20
3919;DHT22;1974;48.670;8.994;2022-10-23T11:10:30;21.40;96.10
3919;DHT22;1974;48.670;8.994;2022-10-23T11:12:58;21.20;96.40
3919;DHT22;1974;48.670;8.994;2022-10-23T11:15:27;21.10;98.00
3919;DHT22;1974;48.670;8.994;2022-10-23T11:17:57;21.10;99.40
3919;DHT22;1974;48.670;8.994;2022-10-23T11:20:42;20.90;98.40
3919;DHT22;1974;48.670;8.994;2022-10-23T11:23:31;20.90;98.30
3919;DHT22;1974;48.670;8.994;2022-10-23T11:26:11;20.70;97.60
3919;DHT22;1974;48.670;8.994;2022-10-23T11:28:55;20.80;98.90
3919;DHT22;1974;48.670;8.994;2022-10-23T11:31:31;20.80;99.00
3919;DHT22;1974;48.670;8.994;2022-10-23T11:34:16;20.80;98.90
3919;DHT22;1974;48.670;8.994;2022-10-23T11:36:53;20.80;99.90
3919;DHT22;1974;48.670;8.994;2022-10-23T11:39:23;20.80;99.90
3919;DHT22;1974;48.670;8.994;2022-10-23T11:41:52;20.80;99.90
3919;DHT22;1974;48.670;8.994;2022-10-23T11:44:41;20.70;99.90
3919;DHT22;1974;48.670;8.994;2022-10-23T11:47:32;20.80;99.70
3919;DHT22;1974;48.670;8.994;2022-10-23T11:50:24;20.80;99.90
3919;DHT22;1974;48.670;8.994;2022-10-23T11:52:55;20.90;99.90
3919;DHT22;1974;48.670;8.994;2022-10-23T11:55:24;20.80;99.90
3919;DHT22;1974;48.670;8.994;2022-10-23T11:58:18;20.90;99.90
3919;DHT22;1974;48.670;8.994;2022-10-23T12:00:53;20.80;99.90
3919;DHT22;1974;48.670;8.994;2022-10-23T12:03:24;20.80;99.90
3919;DHT22;1974;48.670;8.994;2022-10-23T12:05:59;20.90;99.90
3919;DHT22;1974;48.670;8.994;2022-10-23T12:08:30;21.00;99.90
3919;DHT22;1974;48.670;8.994;2022-10-23T12:10:58;21.10;99.90
3919;DHT22;1974;48.670;8.994;2022-10-23T12:13:41;21.10;99.90
3919;DHT22;1974;48.670;8.994;2022-10-23T12:16:08;21.10;99.90
3919;DHT22;1974;48.670;8.994;2022-10-23T12:18:48;21.10;99.90
3919;DHT22;1974;48.670;8.994;2022-10-23T12:21:18;21.10;99.90
3919;DHT22;1974;48.670;8.994;2022-10-23T12:24:07;21.10;99.90
3919;DHT22;1974;48.670;8.994;2022-10-23T12:26:47;21.00;99.90
3919;DHT22;1974;48.670;8.994;2022-10-23T12:29:26;20.90;99.90
3919;DHT22;1974;48.670;8.994;2022-10-23T12:32:01;21.00;99.90
3919;DHT22;1974;48.670;8.994;2022-10-23T12:34:38;20.90;99.90
3919;DHT22;1974;48.670;8.994;2022-10-23T12:40:06;20.90;99.90
3919;DHT22;1974;48.670;8.994;2022-10-23T12:42:33;21.00;99.90
3919;DHT22;1974;48.670;8.994;2022-10-23T12:45:02;21.00;99.90
3919;DHT22;1974;48.670;8.994;2022-10-23T12:47:30;21.00;99.90
3919;DHT22;1974;48.670;8.994;2022-10-23T12:49:57;21.10;99.90
3919;DHT22;1974;48.670;8.994;2022-10-23T12:52:24;21.00;99.90
3919;DHT22;1974;48.670;8.994;2022-10-23T12:54:51;20.90;99.90
3919;DHT22;1974;48.670;8.994;2022-10-23T12:57:21;20.90;99.90
3919;DHT22;1974;48.670;8.994;2022-10-23T12:59:54;20.80;99.90
3919;DHT22;1974;48.670;8.994;2022-10-23T13:02:25;20.70;99.90
3919;DHT22;1974;48.670;8.994;2022-10-23T13:04:53;20.60;99.90
3919;DHT22;1974;48.670;8.994;2022-10-23T13:07:24;20.40;99.90
3919;DHT22;1974;48.670;8.994;2022-10-23T13:09:52;20.30;99.90
3919;DHT22;1974;48.670;8.994;2022-10-23T13:12:22;20.10;99.90
3919;DHT22;1974;48.670;8.994;2022-10-23T13:14:58;20.00;99.90
3919;DHT22;1974;48.670;8.994;2022-10-23T13:17:34;20.00;99.90
3919;DHT22;1974;48.670;8.994;2022-10-23T13:20:15;19.90;99.90
3919;DHT22;1974;48.670;8.994;2022-10-23T13:22:45;19.90;99.90
3919;DHT22;1974;48.670;8.994;2022-10-23T13:25:21;19.80;99.90
3919;DHT22;1974;48.670;8.994;2022-10-23T13:27:49;19.80;99.90
3919;DHT22;1974;48.670;8.994;2022-10-23T13:30:30;19.80;99.90
3919;DHT22;1974;48.670;8.994;2022-10-23T13:32:57;19.90;99.90
3919;DHT22;1974;48.670;8.994;2022-10-23T13:35:25;20.00;99.90
3919;DHT22;1974;48.670;8.994;2022-10-23T13:37:52;20.10;99.90
3919;DHT22;1974;48.670;8.994;2022-10-23T13:40:21;20.20;99.90
3919;DHT22;1974;48.670;8.994;2022-10-23T13:42:50;20.20;99.90
3919;DHT22;1974;48.670;8.994;2022-10-23T13:45:19;20.30;99.90
3919;DHT22;1974;48.670;8.994;2022-10-23T13:47:46;20.30;99.90
3919;DHT22;1974;48.670;8.994;2022-10-23T13:50:13;20.30;99.90
3919;DHT22;1974;48.670;8.994;2022-10-23T13:52:40;20.30;99.90
3919;DHT22;1974;48.670;8.994;2022-10-23T13:55:17;20.30;99.90
3919;DHT22;1974;48.670;8.994;2022-10-23T13:57:45;20.30;99.90
3919;DHT22;1974;48.670;8.994;2022-10-23T14:00:14;20.30;99.90
3919;DHT22;1974;48.670;8.994;2022-10-23T14:02:42;20.30;99.90
3919;DHT22;1974;48.670;8.994;2022-10-23T14:05:09;20.20;99.90
3919;DHT22;1974;48.670;8.994;2022-10-23T14:07:37;20.20;99.90
3919;DHT22;1974;48.670;8.994;2022-10-23T14:10:04;20.10;99.90
3919;DHT22;1974;48.670;8.994;2022-10-23T14:12:38;20.00;99.90
3919;DHT22;1974;48.670;8.994;2022-10-23T14:15:05;19.90;99.90
3919;DHT22;1974;48.670;8.994;2022-10-23T14:17:34;19.80;99.90
3919;DHT22;1974;48.670;8.994;2022-10-23T14:20:01;19.70;99.90
3919;DHT22;1974;48.670;8.994;2022-10-23T14:22:28;19.70;99.90
3919;DHT22;1974;48.670;8.994;2022-10-23T14:24:55;19.70;99.90
3919;DHT22;1974;48.670;8.994;2022-10-23T14:27:22;19.60;99.90
3919;DHT22;1974;48.670;8.994;2022-10-23T14:29:49;19.60;99.90
3919;DHT22;1974;48.670;8.994;2022-10-23T14:32:16;19.60;99.90
3919;DHT22;1974;48.670;8.994;2022-10-23T14:34:49;19.50;99.90
3919;DHT22;1974;48.670;8.994;2022-10-23T14:37:16;19.50;99.90
3919;DHT22;1974;48.670;8.994;2022-10-23T14:39:44;19.50;99.90
3919;DHT22;1974;48.670;8.994;2022-10-23T14:42:11;19.50;99.90
3919;DHT22;1974;48.670;8.994;2022-10-23T14:44:38;19.50;99.90
3919;DHT22;1974;48.670;8.994;2022-10-23T14:47:06;19.50;99.90
3919;DHT22;1974;48.670;8.994;2022-10-23T14:49:33;19.50;99.90
3919;DHT22;1974;48.670;8.994;2022-10-23T14:52:01;19.50;99.90
3919;DHT22;1974;48.670;8.994;2022-10-23T14:54:28;19.50;99.90
3919;DHT22;1974;48.670;8.994;2022-10-23T14:56:57;19.50;99.90
3919;DHT22;1974;48.670;8.994;2022-10-23T14:59:24;19.50;99.90
3919;DHT22;1974;48.670;8.994;2022-10-23T15:01:51;19.50;99.90
3919;DHT22;1974;48.670;8.994;2022-10-23T15:04:17;19.50;99.90
3919;DHT22;1974;48.670;8.994;2022-10-23T15:06:44;19.50;99.90
3919;DHT22;1974;48.670;8.994;2022-10-23T15:09:13;19.50;99.90
3919;DHT22;1974;48.670;8.994;2022-10-23T15:11:40;19.50;99.90
3919;DHT22;1974;48.670;8.994;2022-10-23T15:14:07;19.50;99.90
3919;DHT22;1974;48.670;8.994;2022-10-23T15:16:33;19.50;99.90
3919;DHT22;1974;48.670;8.994;2022-10-23T15:19:05;19.50;99.90
3919;DHT22;1974;48.670;8.994;2022-10-23T15:21:32;19.50;99.90
3919;DHT22;1974;48.670;8.994;2022-10-23T15:24:00;19.50;99.90
3919;DHT22;1974;48.670;8.994;2022-10-23T15:26:28;19.50;99.90
3919;DHT22;1974;48.670;8.994;2022-10-23T15:28:57;19.40;99.90
3919;DHT22;1974;48.670;8.994;2022-10-23T15:31:41;19.40;99.90
3919;DHT22;1974;48.670;8.994;2022-10-23T15:34:10;19.40;99.90
3919;DHT22;1974;48.670;8.994;2022-10-23T15:36:37;19.30;99.90
3919;DHT22;1974;48.670;8.994;2022-10-23T15:39:06;19.30;99.90
3919;DHT22;1974;48.670;8.994;2022-10-23T15:41:36;19.20;99.90
3919;DHT22;1974;48.670;8.994;2022-10-23T15:44:04;19.20;99.90
3919;DHT22;1974;48.670;8.994;2022-10-23T15:46:31;19.10;99.90
3919;DHT22;1974;48.670;8.994;2022-10-23T15:48:58;19.00;99.90
3919;DHT22;1974;48.670;8.994;2022-10-23T15:51:25;18.90;99.90
3919;DHT22;1974;48.670;8.994;2022-10-23T15:53:52;18.80;99.90
3919;DHT22;1974;48.670;8.994;2022-10-23T15:56:21;18.80;99.90
3919;DHT22;1974;48.670;8.994;2022-10-23T15:58:49;18.80;99.90
3919;DHT22;1974;48.670;8.994;2022-10-23T16:01:16;18.80;99.90
3919;DHT22;1974;48.670;8.994;2022-10-23T16:03:43;18.90;99.90
3919;DHT22;1974;48.670;8.994;2022-10-23T16:06:12;18.90;99.90
3919;DHT22;1974;48.670;8.994;2022-10-23T16:08:39;18.90;99.90
3919;DHT22;1974;48.670;8.994;2022-10-23T16:11:13;18.80;99.90
3919;DHT22;1974;48.670;8.994;2022-10-23T16:13:40;18.70;99.90
3919;DHT22;1974;48.670;8.994;2022-10-23T16:16:09;18.70;99.90
3919;DHT22;1974;48.670;8.994;2022-10-23T16:18:36;18.70;99.90
3919;DHT22;1974;48.670;8.994;2022-10-23T16:21:04;18.70;99.90
3919;DHT22;1974;48.670;8.994;2022-10-23T16:23:31;18.70;99.90